sensor_id;sensor_type;location;lat;lon;timestamp;P1;durP1;ratioP1;P2;durP2;ratioP2
2011;SDS011;1009;51.436;6.972;2023-03-11T00:00:51;5.23;;;4.63;;
2011;SDS011;1009;51.436;6.972;2023-03-11T00:03:20;4.37;;;3.93;;
2011;SDS011;1009;51.436;6.972;2023-03-11T00:05:49;6.63;;;3.90;;
2011;SDS011;1009;51.436;6.972;2023-03-11T00:08:18;4.80;;;4.10;;
2011;SDS011;1009;51.436;6.972;2023-03-11T00:10:47;6.90;;;4.63;;
2011;SDS011;1009;51.436;6.972;2023-03-11T00:13:17;5.43;;;4.47;;
2011;SDS011;1009;51.436;6.972;2023-03-11T00:15:45;4.50;;;4.10;;
2011;SDS011;1009;51.436;6.972;2023-03-11T00:18:13;5.03;;;3.90;;
2011;SDS011;1009;51.436;6.972;2023-03-11T00:20:42;4.50;;;4.10;;
2011;SDS011;1009;51.436;6.972;2023-03-11T00:23:11;4.77;;;3.97;;
2011;SDS011;1009;51.436;6.972;2023-03-11T00:25:39;6.20;;;4.47;;
2011;SDS011;1009;51.436;6.972;2023-03-11T00:28:08;6.03;;;4.70;;
2011;SDS011;1009;51.436;6.972;2023-03-11T00:30:35;6.13;;;4.93;;
2011;SDS011;1009;51.436;6.972;2023-03-11T00:33:02;9.03;;;5.30;;
2011;SDS011;1009;51.436;6.972;2023-03-11T00:35:30;9.13;;;5.13;;
2011;SDS011;1009;51.436;6.972;2023-03-11T00:38:00;6.00;;;4.57;;
2011;SDS011;1009;51.436;6.972;2023-03-11T00:40:30;5.30;;;4.30;;
2011;SDS011;1009;51.436;6.972;2023-03-11T00:42:58;8.30;;;5.30;;
2011;SDS011;1009;51.436;6.972;2023-03-11T00:45:25;8.13;;;4.67;;
2011;SDS011;1009;51.436;6.972;2023-03-11T00:47:55;6.03;;;4.20;;
2011;SDS011;1009;51.436;6.972;2023-03-11T00:50:23;5.60;;;4.87;;
2011;SDS011;1009;51.436;6.972;2023-03-11T00:52:52;6.90;;;4.90;;
2011;SDS011;1009;51.436;6.972;2023-03-11T00:55:21;7.20;;;4.13;;
2011;SDS011;1009;51.436;6.972;2023-03-11T00:57:50;8.20;;;4.37;;
2011;SDS011;1009;51.436;6.972;2023-03-11T01:00:18;10.10;;;5.00;;
2011;SDS011;1009;51.436;6.972;2023-03-11T01:02:46;7.50;;;4.37;;
2011;SDS011;1009;51.436;6.972;2023-03-11T01:05:13;7.03;;;4.60;;
2011;SDS011;1009;51.436;6.972;2023-03-11T01:07:45;6.93;;;4.23;;
2011;SDS011;1009;51.436;6.972;2023-03-11T01:10:12;9.13;;;4.40;;
2011;SDS011;1009;51.436;6.972;2023-03-11T01:12:41;5.13;;;4.37;;
2011;SDS011;1009;51.436;6.972;2023-03-11T01:15:08;8.23;;;4.80;;
2011;SDS011;1009;51.436;6.972;2023-03-11T01:17:39;7.87;;;4.70;;
2011;SDS011;1009;51.436;6.972;2023-03-11T01:20:06;7.07;;;5.17;;
2011;SDS011;1009;51.436;6.972;2023-03-11T01:22:35;9.30;;;6.27;;
2011;SDS011;1009;51.436;6.972;2023-03-11T01:25:01;10.07;;;6.50;;
2011;SDS011;1009;51.436;6.972;2023-03-11T01:27:31;8.93;;;7.10;;
2011;SDS011;1009;51.436;6.972;2023-03-11T01:29:59;12.27;;;7.90;;
2011;SDS011;1009;51.436;6.972;2023-03-11T01:32:32;9.87;;;7.83;;
2011;SDS011;1009;51.436;6.972;2023-03-11T01:34:59;11.27;;;7.30;;
2011;SDS011;1009;51.436;6.972;2023-03-11T01:37:25;12.80;;;7.13;;
2011;SDS011;1009;51.436;6.972;2023-03-11T01:39:52;11.60;;;6.20;;
2011;SDS011;1009;51.436;6.972;2023-03-11T01:42:22;12.10;;;6.20;;
2011;SDS011;1009;51.436;6.972;2023-03-11T01:44:48;10.40;;;6.03;;
2011;SDS011;1009;51.436;6.972;2023-03-11T01:47:34;9.80;;;5.13;;
2011;SDS011;1009;51.436;6.972;2023-03-11T01:50:03;10.10;;;5.40;;
2011;SDS011;1009;51.436;6.972;2023-03-11T01:52:37;11.00;;;5.23;;
2011;SDS011;1009;51.436;6.972;2023-03-11T01:55:10;11.80;;;4.70;;
2011;SDS011;1009;51.436;6.972;2023-03-11T01:57:39;8.53;;;5.10;;
2011;SDS011;1009;51.436;6.972;2023-03-11T02:00:09;12.07;;;4.93;;
2011;SDS011;1009;51.436;6.972;2023-03-11T02:02:42;9.73;;;4.90;;
2011;SDS011;1009;51.436;6.972;2023-03-11T02:05:13;9.60;;;5.00;;
2011;SDS011;1009;51.436;6.972;2023-03-11T02:07:40;7.90;;;4.60;;
2011;SDS011;1009;51.436;6.972;2023-03-11T02:10:07;14.30;;;5.20;;
2011;SDS011;1009;51.436;6.972;2023-03-11T02:12:36;9.03;;;4.87;;
2011;SDS011;1009;51.436;6.972;2023-03-11T02:15:03;9.17;;;5.70;;
2011;SDS011;1009;51.436;6.972;2023-03-11T02:17:31;10.50;;;4.97;;
2011;SDS011;1009;51.436;6.972;2023-03-11T02:20:07;9.13;;;4.83;;
2011;SDS011;1009;51.436;6.972;2023-03-11T02:22:41;8.10;;;4.60;;
2011;SDS011;1009;51.436;6.972;2023-03-11T02:25:10;13.73;;;6.13;;
2011;SDS011;1009;51.436;6.972;2023-03-11T02:27:45;16.43;;;6.67;;
2011;SDS011;1009;51.436;6.972;2023-03-11T02:30:16;18.20;;;7.77;;
2011;SDS011;1009;51.436;6.972;2023-03-11T02:32:44;13.07;;;7.67;;
2011;SDS011;1009;51.436;6.972;2023-03-11T02:35:12;13.07;;;6.10;;
2011;SDS011;1009;51.436;6.972;2023-03-11T02:37:43;9.53;;;6.30;;
2011;SDS011;1009;51.436;6.972;2023-03-11T02:43:16;12.80;;;5.73;;
2011;SDS011;1009;51.436;6.972;2023-03-11T02:45:45;12.50;;;6.30;;
2011;SDS011;1009;51.436;6.972;2023-03-11T02:48:13;13.07;;;6.03;;
2011;SDS011;1009;51.436;6.972;2023-03-11T02:50:40;12.70;;;6.30;;
2011;SDS011;1009;51.436;6.972;2023-03-11T02:53:08;14.57;;;5.23;;
2011;SDS011;1009;51.436;6.972;2023-03-11T02:55:35;9.93;;;5.50;;
2011;SDS011;1009;51.436;6.972;2023-03-11T02:58:08;13.77;;;5.40;;
2011;SDS011;1009;51.436;6.972;2023-03-11T03:00:42;17.40;;;5.60;;
2011;SDS011;1009;51.436;6.972;2023-03-11T03:03:09;11.57;;;5.37;;
2011;SDS011;1009;51.436;6.972;2023-03-11T03:05:35;12.40;;;4.93;;
2011;SDS011;1009;51.436;6.972;2023-03-11T03:08:02;17.33;;;5.67;;
2011;SDS011;1009;51.436;6.972;2023-03-11T03:10:29;11.10;;;5.83;;
2011;SDS011;1009;51.436;6.972;2023-03-11T03:12:56;10.07;;;4.67;;
2011;SDS011;1009;51.436;6.972;2023-03-11T03:15:24;14.23;;;4.77;;
2011;SDS011;1009;51.436;6.972;2023-03-11T03:17:50;12.10;;;4.63;;
2011;SDS011;1009;51.436;6.972;2023-03-11T03:20:17;12.70;;;5.17;;
2011;SDS011;1009;51.436;6.972;2023-03-11T03:22:46;12.87;;;4.43;;
2011;SDS011;1009;51.436;6.972;2023-03-11T03:25:14;8.90;;;4.30;;
2011;SDS011;1009;51.436;6.972;2023-03-11T03:27:41;16.47;;;4.77;;
2011;SDS011;1009;51.436;6.972;2023-03-11T03:30:08;12.20;;;4.33;;
2011;SDS011;1009;51.436;6.972;2023-03-11T03:32:37;14.43;;;5.37;;
2011;SDS011;1009;51.436;6.972;2023-03-11T03:35:04;10.73;;;4.23;;
2011;SDS011;1009;51.436;6.972;2023-03-11T03:37:32;12.43;;;4.53;;
2011;SDS011;1009;51.436;6.972;2023-03-11T03:40:03;13.67;;;4.20;;
2011;SDS011;1009;51.436;6.972;2023-03-11T03:42:34;12.90;;;4.53;;
2011;SDS011;1009;51.436;6.972;2023-03-11T03:45:01;12.63;;;4.00;;
2011;SDS011;1009;51.436;6.972;2023-03-11T03:47:30;6.80;;;3.50;;
2011;SDS011;1009;51.436;6.972;2023-03-11T03:49:58;12.57;;;3.60;;
2011;SDS011;1009;51.436;6.972;2023-03-11T03:52:25;9.50;;;3.53;;
2011;SDS011;1009;51.436;6.972;2023-03-11T03:54:52;8.00;;;3.50;;
2011;SDS011;1009;51.436;6.972;2023-03-11T03:57:18;7.50;;;3.33;;
2011;SDS011;1009;51.436;6.972;2023-03-11T03:59:45;14.70;;;3.77;;
2011;SDS011;1009;51.436;6.972;2023-03-11T04:02:12;8.63;;;3.20;;
2011;SDS011;1009;51.436;6.972;2023-03-11T04:04:38;11.53;;;4.00;;
2011;SDS011;1009;51.436;6.972;2023-03-11T04:07:07;9.33;;;3.20;;
2011;SDS011;1009;51.436;6.972;2023-03-11T04:09:33;8.67;;;2.90;;
2011;SDS011;1009;51.436;6.972;2023-03-11T04:12:00;8.50;;;3.63;;
2011;SDS011;1009;51.436;6.972;2023-03-11T04:14:27;7.30;;;3.00;;
2011;SDS011;1009;51.436;6.972;2023-03-11T04:16:53;7.67;;;3.20;;
2011;SDS011;1009;51.436;6.972;2023-03-11T04:19:23;7.93;;;3.30;;
2011;SDS011;1009;51.436;6.972;2023-03-11T04:21:50;10.40;;;3.13;;
2011;SDS011;1009;51.436;6.972;2023-03-11T04:24:24;6.23;;;2.80;;
2011;SDS011;1009;51.436;6.972;2023-03-11T04:26:51;9.20;;;3.47;;
2011;SDS011;1009;51.436;6.972;2023-03-11T04:29:17;6.53;;;2.60;;
2011;SDS011;1009;51.436;6.972;2023-03-11T04:31:50;10.20;;;3.03;;
2011;SDS011;1009;51.436;6.972;2023-03-11T04:34:20;12.20;;;3.30;;
2011;SDS011;1009;51.436;6.972;2023-03-11T04:36:46;9.13;;;3.00;;
2011;SDS011;1009;51.436;6.972;2023-03-11T04:39:16;10.43;;;3.30;;
2011;SDS011;1009;51.436;6.972;2023-03-11T04:41:44;5.50;;;2.80;;
2011;SDS011;1009;51.436;6.972;2023-03-11T04:44:10;9.50;;;2.83;;
2011;SDS011;1009;51.436;6.972;2023-03-11T04:46:37;9.93;;;3.77;;
2011;SDS011;1009;51.436;6.972;2023-03-11T04:49:04;13.20;;;3.97;;
2011;SDS011;1009;51.436;6.972;2023-03-11T04:51:31;12.03;;;3.30;;
2011;SDS011;1009;51.436;6.972;2023-03-11T04:53:57;10.03;;;3.23;;
2011;SDS011;1009;51.436;6.972;2023-03-11T04:56:24;11.10;;;3.13;;
2011;SDS011;1009;51.436;6.972;2023-03-11T04:58:52;9.00;;;2.73;;
2011;SDS011;1009;51.436;6.972;2023-03-11T05:01:19;9.97;;;3.07;;
2011;SDS011;1009;51.436;6.972;2023-03-11T05:03:45;9.37;;;3.30;;
2011;SDS011;1009;51.436;6.972;2023-03-11T05:06:12;9.90;;;3.40;;
2011;SDS011;1009;51.436;6.972;2023-03-11T05:08:39;14.17;;;4.23;;
2011;SDS011;1009;51.436;6.972;2023-03-11T05:11:06;14.60;;;5.13;;
2011;SDS011;1009;51.436;6.972;2023-03-11T05:13:33;14.53;;;5.30;;
2011;SDS011;1009;51.436;6.972;2023-03-11T05:16:01;13.17;;;5.77;;
2011;SDS011;1009;51.436;6.972;2023-03-11T05:18:28;19.50;;;5.70;;
2011;SDS011;1009;51.436;6.972;2023-03-11T05:20:56;11.70;;;5.17;;
2011;SDS011;1009;51.436;6.972;2023-03-11T05:23:23;13.87;;;5.70;;
2011;SDS011;1009;51.436;6.972;2023-03-11T05:25:49;16.53;;;5.90;;
2011;SDS011;1009;51.436;6.972;2023-03-11T05:28:16;12.23;;;5.40;;
2011;SDS011;1009;51.436;6.972;2023-03-11T05:30:43;18.77;;;6.53;;
2011;SDS011;1009;51.436;6.972;2023-03-11T05:33:11;14.03;;;5.43;;
2011;SDS011;1009;51.436;6.972;2023-03-11T05:35:38;10.40;;;5.20;;
2011;SDS011;1009;51.436;6.972;2023-03-11T05:38:07;8.70;;;4.77;;
2011;SDS011;1009;51.436;6.972;2023-03-11T05:40:37;12.60;;;5.53;;
2011;SDS011;1009;51.436;6.972;2023-03-11T05:43:09;12.73;;;5.73;;
2011;SDS011;1009;51.436;6.972;2023-03-11T05:45:36;13.37;;;5.60;;
2011;SDS011;1009;51.436;6.972;2023-03-11T05:48:03;16.40;;;5.67;;
2011;SDS011;1009;51.436;6.972;2023-03-11T05:50:31;17.43;;;6.40;;
2011;SDS011;1009;51.436;6.972;2023-03-11T05:52:58;10.70;;;5.27;;
2011;SDS011;1009;51.436;6.972;2023-03-11T05:55:28;14.80;;;5.10;;
2011;SDS011;1009;51.436;6.972;2023-03-11T05:57:54;12.40;;;5.23;;
2011;SDS011;1009;51.436;6.972;2023-03-11T06:00:21;12.00;;;5.67;;
2011;SDS011;1009;51.436;6.972;2023-03-11T06:02:48;15.73;;;5.03;;
2011;SDS011;1009;51.436;6.972;2023-03-11T06:05:14;13.20;;;5.43;;
2011;SDS011;1009;51.436;6.972;2023-03-11T06:07:43;14.40;;;5.60;;
2011;SDS011;1009;51.436;6.972;2023-03-11T06:10:10;13.20;;;5.40;;
2011;SDS011;1009;51.436;6.972;2023-03-11T06:12:37;14.23;;;5.23;;
2011;SDS011;1009;51.436;6.972;2023-03-11T06:15:04;12.30;;;4.70;;
2011;SDS011;1009;51.436;6.972;2023-03-11T06:17:32;9.10;;;3.97;;
2011;SDS011;1009;51.436;6.972;2023-03-11T06:19:58;8.90;;;4.00;;
2011;SDS011;1009;51.436;6.972;2023-03-11T06:22:25;10.23;;;4.33;;
2011;SDS011;1009;51.436;6.972;2023-03-11T06:24:53;10.97;;;4.47;;
2011;SDS011;1009;51.436;6.972;2023-03-11T06:27:20;10.20;;;4.90;;
2011;SDS011;1009;51.436;6.972;2023-03-11T06:29:50;13.60;;;4.60;;
2011;SDS011;1009;51.436;6.972;2023-03-11T06:32:18;10.17;;;4.40;;
2011;SDS011;1009;51.436;6.972;2023-03-11T06:34:48;10.70;;;4.23;;
2011;SDS011;1009;51.436;6.972;2023-03-11T06:37:16;9.50;;;4.17;;
2011;SDS011;1009;51.436;6.972;2023-03-11T06:39:43;11.67;;;4.10;;
2011;SDS011;1009;51.436;6.972;2023-03-11T06:42:11;8.40;;;4.77;;
2011;SDS011;1009;51.436;6.972;2023-03-11T06:44:38;10.80;;;4.80;;
2011;SDS011;1009;51.436;6.972;2023-03-11T06:47:05;10.67;;;4.90;;
2011;SDS011;1009;51.436;6.972;2023-03-11T06:49:34;8.73;;;4.33;;
2011;SDS011;1009;51.436;6.972;2023-03-11T06:52:05;10.80;;;4.67;;
2011;SDS011;1009;51.436;6.972;2023-03-11T06:54:32;11.87;;;4.00;;
2011;SDS011;1009;51.436;6.972;2023-03-11T06:57:05;13.93;;;5.67;;
2011;SDS011;1009;51.436;6.972;2023-03-11T06:59:36;8.87;;;4.87;;
2011;SDS011;1009;51.436;6.972;2023-03-11T07:02:03;10.20;;;3.90;;
2011;SDS011;1009;51.436;6.972;2023-03-11T07:04:30;7.17;;;3.70;;
2011;SDS011;1009;51.436;6.972;2023-03-11T07:06:57;9.20;;;4.57;;
2011;SDS011;1009;51.436;6.972;2023-03-11T07:09:24;11.57;;;5.23;;
2011;SDS011;1009;51.436;6.972;2023-03-11T07:11:52;10.70;;;4.10;;
2011;SDS011;1009;51.436;6.972;2023-03-11T07:14:19;9.27;;;4.30;;
2011;SDS011;1009;51.436;6.972;2023-03-11T07:16:47;12.43;;;4.60;;
2011;SDS011;1009;51.436;6.972;2023-03-11T07:19:14;8.47;;;3.80;;
2011;SDS011;1009;51.436;6.972;2023-03-11T07:21:41;7.93;;;3.97;;
2011;SDS011;1009;51.436;6.972;2023-03-11T07:24:10;7.43;;;3.70;;
2011;SDS011;1009;51.436;6.972;2023-03-11T07:26:40;9.40;;;4.10;;
2011;SDS011;1009;51.436;6.972;2023-03-11T07:29:07;10.03;;;3.87;;
2011;SDS011;1009;51.436;6.972;2023-03-11T07:31:35;9.00;;;4.00;;
2011;SDS011;1009;51.436;6.972;2023-03-11T07:34:11;12.70;;;5.07;;
2011;SDS011;1009;51.436;6.972;2023-03-11T07:36:38;13.67;;;4.93;;
2011;SDS011;1009;51.436;6.972;2023-03-11T07:39:05;7.70;;;4.60;;
2011;SDS011;1009;51.436;6.972;2023-03-11T07:41:33;11.57;;;4.57;;
2011;SDS011;1009;51.436;6.972;2023-03-11T07:44:01;7.87;;;5.00;;
2011;SDS011;1009;51.436;6.972;2023-03-11T07:46:28;9.63;;;4.60;;
2011;SDS011;1009;51.436;6.972;2023-03-11T07:49:02;7.10;;;4.80;;
2011;SDS011;1009;51.436;6.972;2023-03-11T07:51:30;12.97;;;4.87;;
2011;SDS011;1009;51.436;6.972;2023-03-11T07:53:59;10.87;;;4.63;;
2011;SDS011;1009;51.436;6.972;2023-03-11T07:56:26;8.77;;;4.80;;
2011;SDS011;1009;51.436;6.972;2023-03-11T07:58:56;11.30;;;4.97;;
2011;SDS011;1009;51.436;6.972;2023-03-11T08:01:23;12.80;;;4.93;;
2011;SDS011;1009;51.436;6.972;2023-03-11T08:03:54;7.40;;;5.13;;
2011;SDS011;1009;51.436;6.972;2023-03-11T08:06:23;10.43;;;5.37;;
2011;SDS011;1009;51.436;6.972;2023-03-11T08:08:52;14.60;;;4.20;;
2011;SDS011;1009;51.436;6.972;2023-03-11T08:11:19;10.30;;;4.83;;
2011;SDS011;1009;51.436;6.972;2023-03-11T08:13:46;10.10;;;5.00;;
2011;SDS011;1009;51.436;6.972;2023-03-11T08:16:14;8.20;;;4.17;;
2011;SDS011;1009;51.436;6.972;2023-03-11T08:18:42;11.50;;;4.50;;
2011;SDS011;1009;51.436;6.972;2023-03-11T08:21:10;7.43;;;4.40;;
2011;SDS011;1009;51.436;6.972;2023-03-11T08:23:38;6.10;;;3.80;;
2011;SDS011;1009;51.436;6.972;2023-03-11T08:26:07;9.30;;;3.90;;
2011;SDS011;1009;51.436;6.972;2023-03-11T08:28:35;7.40;;;3.70;;
2011;SDS011;1009;51.436;6.972;2023-03-11T08:31:02;9.80;;;3.87;;
2011;SDS011;1009;51.436;6.972;2023-03-11T08:33:36;10.13;;;3.77;;
2011;SDS011;1009;51.436;6.972;2023-03-11T08:36:03;9.03;;;4.30;;
2011;SDS011;1009;51.436;6.972;2023-03-11T08:38:30;8.33;;;3.73;;
2011;SDS011;1009;51.436;6.972;2023-03-11T08:40:57;14.83;;;3.97;;
2011;SDS011;1009;51.436;6.972;2023-03-11T08:43:26;10.57;;;4.27;;
2011;SDS011;1009;51.436;6.972;2023-03-11T08:45:53;10.23;;;4.20;;
2011;SDS011;1009;51.436;6.972;2023-03-11T08:48:19;11.50;;;4.00;;
2011;SDS011;1009;51.436;6.972;2023-03-11T08:50:47;9.00;;;3.60;;
2011;SDS011;1009;51.436;6.972;2023-03-11T08:53:14;12.73;;;3.63;;
2011;SDS011;1009;51.436;6.972;2023-03-11T08:55:41;7.83;;;4.23;;
2011;SDS011;1009;51.436;6.972;2023-03-11T08:58:07;8.80;;;4.20;;
2011;SDS011;1009;51.436;6.972;2023-03-11T09:00:35;8.07;;;3.50;;
2011;SDS011;1009;51.436;6.972;2023-03-11T09:03:02;7.60;;;2.70;;
2011;SDS011;1009;51.436;6.972;2023-03-11T09:05:29;4.30;;;2.20;;
2011;SDS011;1009;51.436;6.972;2023-03-11T09:07:55;6.53;;;2.20;;
2011;SDS011;1009;51.436;6.972;2023-03-11T09:10:22;5.00;;;1.73;;
2011;SDS011;1009;51.436;6.972;2023-03-11T09:12:49;3.90;;;1.60;;
2011;SDS011;1009;51.436;6.972;2023-03-11T09:15:16;4.70;;;1.40;;
2011;SDS011;1009;51.436;6.972;2023-03-11T09:17:44;7.47;;;2.03;;
2011;SDS011;1009;51.436;6.972;2023-03-11T09:20:11;4.67;;;1.63;;
2011;SDS011;1009;51.436;6.972;2023-03-11T09:22:41;4.57;;;1.30;;
2011;SDS011;1009;51.436;6.972;2023-03-11T09:25:08;10.13;;;2.17;;
2011;SDS011;1009;51.436;6.972;2023-03-11T09:27:37;4.70;;;1.70;;
2011;SDS011;1009;51.436;6.972;2023-03-11T09:30:05;6.03;;;1.57;;
2011;SDS011;1009;51.436;6.972;2023-03-11T09:32:33;4.00;;;1.30;;
2011;SDS011;1009;51.436;6.972;2023-03-11T09:35:01;4.97;;;1.60;;
2011;SDS011;1009;51.436;6.972;2023-03-11T09:37:28;3.73;;;1.37;;
2011;SDS011;1009;51.436;6.972;2023-03-11T09:39:54;3.47;;;1.53;;
2011;SDS011;1009;51.436;6.972;2023-03-11T09:42:23;1.90;;;1.00;;
2011;SDS011;1009;51.436;6.972;2023-03-11T09:44:58;6.77;;;1.50;;
2011;SDS011;1009;51.436;6.972;2023-03-11T09:47:39;5.23;;;1.70;;
2011;SDS011;1009;51.436;6.972;2023-03-11T09:50:21;4.40;;;1.90;;
2011;SDS011;1009;51.436;6.972;2023-03-11T09:52:59;5.70;;;1.83;;
2011;SDS011;1009;51.436;6.972;2023-03-11T09:55:37;8.70;;;2.10;;
2011;SDS011;1009;51.436;6.972;2023-03-11T09:58:11;4.60;;;1.40;;
2011;SDS011;1009;51.436;6.972;2023-03-11T10:00:41;4.17;;;1.47;;
2011;SDS011;1009;51.436;6.972;2023-03-11T10:03:12;3.13;;;1.00;;
2011;SDS011;1009;51.436;6.972;2023-03-11T10:05:54;6.80;;;1.43;;
2011;SDS011;1009;51.436;6.972;2023-03-11T10:08:29;5.03;;;1.10;;
2011;SDS011;1009;51.436;6.972;2023-03-11T10:11:05;4.63;;;1.37;;
2011;SDS011;1009;51.436;6.972;2023-03-11T10:13:42;8.40;;;1.80;;
2011;SDS011;1009;51.436;6.972;2023-03-11T10:16:13;3.80;;;1.60;;
2011;SDS011;1009;51.436;6.972;2023-03-11T10:18:49;4.57;;;1.40;;
2011;SDS011;1009;51.436;6.972;2023-03-11T10:21:26;4.43;;;1.50;;
2011;SDS011;1009;51.436;6.972;2023-03-11T10:24:06;4.20;;;1.43;;
2011;SDS011;1009;51.436;6.972;2023-03-11T10:26:42;3.07;;;1.20;;
2011;SDS011;1009;51.436;6.972;2023-03-11T10:29:13;4.83;;;1.47;;
2011;SDS011;1009;51.436;6.972;2023-03-11T10:31:45;3.67;;;1.53;;
2011;SDS011;1009;51.436;6.972;2023-03-11T10:34:19;5.30;;;1.73;;
2011;SDS011;1009;51.436;6.972;2023-03-11T10:36:54;5.63;;;1.67;;
2011;SDS011;1009;51.436;6.972;2023-03-11T10:39:25;4.30;;;1.83;;
2011;SDS011;1009;51.436;6.972;2023-03-11T10:41:53;3.03;;;1.20;;
2011;SDS011;1009;51.436;6.972;2023-03-11T10:44:23;4.93;;;1.30;;
2011;SDS011;1009;51.436;6.972;2023-03-11T10:46:53;3.67;;;1.33;;
2011;SDS011;1009;51.436;6.972;2023-03-11T10:49:20;4.60;;;1.77;;
2011;SDS011;1009;51.436;6.972;2023-03-11T10:51:47;4.20;;;1.63;;
2011;SDS011;1009;51.436;6.972;2023-03-11T10:54:21;3.40;;;1.40;;
2011;SDS011;1009;51.436;6.972;2023-03-11T10:56:53;4.43;;;1.43;;
2011;SDS011;1009;51.436;6.972;2023-03-11T10:59:23;2.73;;;1.17;;
2011;SDS011;1009;51.436;6.972;2023-03-11T11:01:52;4.30;;;1.10;;
2011;SDS011;1009;51.436;6.972;2023-03-11T11:04:26;3.80;;;1.27;;
2011;SDS011;1009;51.436;6.972;2023-03-11T11:06:55;8.43;;;1.87;;
2011;SDS011;1009;51.436;6.972;2023-03-11T11:09:24;4.17;;;1.43;;
2011;SDS011;1009;51.436;6.972;2023-03-11T11:12:02;7.50;;;2.90;;
2011;SDS011;1009;51.436;6.972;2023-03-11T11:14:41;3.97;;;1.37;;
2011;SDS011;1009;51.436;6.972;2023-03-11T11:17:14;5.83;;;1.50;;
2011;SDS011;1009;51.436;6.972;2023-03-11T11:19:43;4.90;;;1.40;;
2011;SDS011;1009;51.436;6.972;2023-03-11T11:22:11;2.90;;;1.50;;
2011;SDS011;1009;51.436;6.972;2023-03-11T11:24:43;6.03;;;1.47;;
2011;SDS011;1009;51.436;6.972;2023-03-11T11:27:14;4.47;;;1.37;;
2011;SDS011;1009;51.436;6.972;2023-03-11T11:29:42;8.00;;;1.30;;
2011;SDS011;1009;51.436;6.972;2023-03-11T11:32:15;4.20;;;1.60;;
2011;SDS011;1009;51.436;6.972;2023-03-11T11:37:31;3.87;;;1.30;;
2011;SDS011;1009;51.436;6.972;2023-03-11T11:40:02;4.13;;;1.67;;
2011;SDS011;1009;51.436;6.972;2023-03-11T11:42:35;4.33;;;1.50;;
2011;SDS011;1009;51.436;6.972;2023-03-11T11:45:03;4.07;;;1.67;;
2011;SDS011;1009;51.436;6.972;2023-03-11T11:47:38;5.80;;;1.33;;
2011;SDS011;1009;51.436;6.972;2023-03-11T11:50:11;5.93;;;2.00;;
2011;SDS011;1009;51.436;6.972;2023-03-11T11:52:42;4.07;;;1.70;;
2011;SDS011;1009;51.436;6.972;2023-03-11T11:55:17;7.70;;;1.67;;
2011;SDS011;1009;51.436;6.972;2023-03-11T11:57:48;5.77;;;1.40;;
2011;SDS011;1009;51.436;6.972;2023-03-11T12:00:17;3.57;;;1.20;;
2011;SDS011;1009;51.436;6.972;2023-03-11T12:02:50;3.97;;;1.50;;
2011;SDS011;1009;51.436;6.972;2023-03-11T12:05:31;4.90;;;1.37;;
2011;SDS011;1009;51.436;6.972;2023-03-11T12:08:08;3.63;;;1.30;;
2011;SDS011;1009;51.436;6.972;2023-03-11T12:10:44;5.03;;;1.30;;
2011;SDS011;1009;51.436;6.972;2023-03-11T12:16:14;2.17;;;1.13;;
2011;SDS011;1009;51.436;6.972;2023-03-11T12:18:51;7.80;;;1.73;;
2011;SDS011;1009;51.436;6.972;2023-03-11T12:21:24;6.80;;;1.47;;
2011;SDS011;1009;51.436;6.972;2023-03-11T12:24:04;4.80;;;1.77;;
2011;SDS011;1009;51.436;6.972;2023-03-11T12:26:44;4.20;;;2.17;;
2011;SDS011;1009;51.436;6.972;2023-03-11T12:29:14;4.43;;;1.50;;
2011;SDS011;1009;51.436;6.972;2023-03-11T12:31:49;5.47;;;1.70;;
2011;SDS011;1009;51.436;6.972;2023-03-11T12:34:19;5.13;;;1.60;;
2011;SDS011;1009;51.436;6.972;2023-03-11T12:36:48;3.90;;;1.67;;
2011;SDS011;1009;51.436;6.972;2023-03-11T12:39:19;3.17;;;1.80;;
2011;SDS011;1009;51.436;6.972;2023-03-11T12:41:50;6.20;;;2.30;;
2011;SDS011;1009;51.436;6.972;2023-03-11T12:44:40;4.47;;;2.10;;
2011;SDS011;1009;51.436;6.972;2023-03-11T12:49:55;6.17;;;2.23;;
2011;SDS011;1009;51.436;6.972;2023-03-11T12:53:00;11.10;;;2.97;;
2011;SDS011;1009;51.436;6.972;2023-03-11T12:55:32;6.40;;;2.43;;
2011;SDS011;1009;51.436;6.972;2023-03-11T12:58:20;6.10;;;2.53;;
2011;SDS011;1009;51.436;6.972;2023-03-11T13:01:16;5.50;;;2.37;;
2011;SDS011;1009;51.436;6.972;2023-03-11T13:04:12;8.53;;;2.10;;
2011;SDS011;1009;51.436;6.972;2023-03-11T13:10:01;7.27;;;2.20;;
2011;SDS011;1009;51.436;6.972;2023-03-11T13:12:39;7.83;;;2.70;;
2011;SDS011;1009;51.436;6.972;2023-03-11T13:15:29;7.40;;;2.50;;
2011;SDS011;1009;51.436;6.972;2023-03-11T13:18:00;6.63;;;2.60;;
2011;SDS011;1009;51.436;6.972;2023-03-11T13:20:43;5.20;;;2.60;;
2011;SDS011;1009;51.436;6.972;2023-03-11T13:29:07;5.43;;;2.47;;
2011;SDS011;1009;51.436;6.972;2023-03-11T13:31:52;6.77;;;2.43;;
2011;SDS011;1009;51.436;6.972;2023-03-11T13:34:42;7.33;;;2.60;;
2011;SDS011;1009;51.436;6.972;2023-03-11T13:37:23;7.50;;;2.43;;
2011;SDS011;1009;51.436;6.972;2023-03-11T13:40:04;6.10;;;2.40;;
2011;SDS011;1009;51.436;6.972;2023-03-11T13:42:40;6.93;;;2.57;;
2011;SDS011;1009;51.436;6.972;2023-03-11T13:45:13;6.30;;;2.37;;
2011;SDS011;1009;51.436;6.972;2023-03-11T13:47:48;6.83;;;2.13;;
2011;SDS011;1009;51.436;6.972;2023-03-11T13:50:18;7.73;;;2.67;;
2011;SDS011;1009;51.436;6.972;2023-03-11T13:52:50;7.20;;;2.53;;
2011;SDS011;1009;51.436;6.972;2023-03-11T13:55:19;4.57;;;1.70;;
2011;SDS011;1009;51.436;6.972;2023-03-11T13:57:48;4.70;;;2.20;;
2011;SDS011;1009;51.436;6.972;2023-03-11T14:00:17;5.90;;;1.80;;
2011;SDS011;1009;51.436;6.972;2023-03-11T14:02:50;5.40;;;1.80;;
2011;SDS011;1009;51.436;6.972;2023-03-11T14:05:21;3.53;;;1.83;;
2011;SDS011;1009;51.436;6.972;2023-03-11T14:07:49;5.93;;;1.50;;
2011;SDS011;1009;51.436;6.972;2023-03-11T14:10:24;5.57;;;1.97;;
2011;SDS011;1009;51.436;6.972;2023-03-11T14:13:03;8.53;;;1.93;;
2011;SDS011;1009;51.436;6.972;2023-03-11T14:15:33;4.10;;;1.60;;
2011;SDS011;1009;51.436;6.972;2023-03-11T14:18:24;4.10;;;1.90;;
2011;SDS011;1009;51.436;6.972;2023-03-11T14:20:52;4.50;;;1.70;;
2011;SDS011;1009;51.436;6.972;2023-03-11T14:23:19;4.03;;;2.00;;
2011;SDS011;1009;51.436;6.972;2023-03-11T14:25:46;5.13;;;1.80;;
2011;SDS011;1009;51.436;6.972;2023-03-11T14:28:16;5.57;;;1.50;;
2011;SDS011;1009;51.436;6.972;2023-03-11T14:30:54;4.07;;;1.67;;
2011;SDS011;1009;51.436;6.972;2023-03-11T14:33:24;6.93;;;1.97;;
2011;SDS011;1009;51.436;6.972;2023-03-11T14:35:51;7.00;;;1.73;;
2011;SDS011;1009;51.436;6.972;2023-03-11T14:38:22;4.50;;;2.00;;
2011;SDS011;1009;51.436;6.972;2023-03-11T14:40:51;8.17;;;1.73;;
2011;SDS011;1009;51.436;6.972;2023-03-11T14:43:19;3.63;;;1.60;;
2011;SDS011;1009;51.436;6.972;2023-03-11T14:45:47;6.00;;;2.30;;
2011;SDS011;1009;51.436;6.972;2023-03-11T14:48:16;4.07;;;1.47;;
2011;SDS011;1009;51.436;6.972;2023-03-11T14:50:49;2.93;;;1.40;;
2011;SDS011;1009;51.436;6.972;2023-03-11T14:53:20;4.70;;;1.50;;
2011;SDS011;1009;51.436;6.972;2023-03-11T14:55:49;8.13;;;2.20;;
2011;SDS011;1009;51.436;6.972;2023-03-11T14:58:20;5.23;;;1.50;;
2011;SDS011;1009;51.436;6.972;2023-03-11T15:00:54;5.27;;;2.30;;
2011;SDS011;1009;51.436;6.972;2023-03-11T15:03:25;5.03;;;1.90;;
2011;SDS011;1009;51.436;6.972;2023-03-11T15:05:57;6.17;;;1.83;;
2011;SDS011;1009;51.436;6.972;2023-03-11T15:08:27;5.13;;;2.00;;
2011;SDS011;1009;51.436;6.972;2023-03-11T15:11:02;5.13;;;1.90;;
2011;SDS011;1009;51.436;6.972;2023-03-11T15:13:43;3.67;;;2.27;;
2011;SDS011;1009;51.436;6.972;2023-03-11T15:16:23;5.07;;;1.80;;
2011;SDS011;1009;51.436;6.972;2023-03-11T15:18:51;6.97;;;2.07;;
2011;SDS011;1009;51.436;6.972;2023-03-11T15:21:21;6.23;;;2.30;;
2011;SDS011;1009;51.436;6.972;2023-03-11T15:23:50;4.30;;;2.03;;
2011;SDS011;1009;51.436;6.972;2023-03-11T15:26:19;5.10;;;2.10;;
2011;SDS011;1009;51.436;6.972;2023-03-11T15:28:55;7.03;;;2.10;;
2011;SDS011;1009;51.436;6.972;2023-03-11T15:31:31;6.73;;;2.17;;
2011;SDS011;1009;51.436;6.972;2023-03-11T15:34:06;8.53;;;2.27;;
2011;SDS011;1009;51.436;6.972;2023-03-11T15:36:58;5.80;;;2.33;;
2011;SDS011;1009;51.436;6.972;2023-03-11T15:39:27;6.97;;;2.30;;
2011;SDS011;1009;51.436;6.972;2023-03-11T15:42:12;8.20;;;2.00;;
2011;SDS011;1009;51.436;6.972;2023-03-11T15:44:42;6.90;;;1.70;;
2011;SDS011;1009;51.436;6.972;2023-03-11T15:47:21;5.30;;;2.30;;
2011;SDS011;1009;51.436;6.972;2023-03-11T15:49:49;7.10;;;2.20;;